< Typhoon 199611 1996 Season Typhoon 199613 >
Typhoon 199612 (KIRK)
General InformationTrack Information on Google MapsDetailed Wind InformationList of All Images || NewsDisaster Info.ResourceGoogle EarthGE AnimationAtom FeedGeoJSON
Detalied Best Track (Time Zone = UTC)
Year Month Day Hour Lat. Long. Pressure (hPa) Wind (kt) Class Image Chart
1996 8 3 18 21.0 133.7 1004 0 2 Image Chart
1996 8 4 00 22.7 132.4 1004 0 2 Image Chart
1996 8 4 06 24.2 131.3 1002 0 2 Image Chart
1996 8 4 12 25.0 131.0 1002 0 2 Image Chart
1996 8 4 18 26.1 130.9 998 0 2 Image Chart
1996 8 5 00 26.9 130.6 998 0 2 Image Chart
1996 8 5 06 27.2 130.3 998 0 2 Image Chart
1996 8 5 12 27.8 130.4 996 0 2 Image Chart
1996 8 5 18 27.9 130.5 996 35 3 Image Chart
1996 8 6 00 27.4 130.9 994 40 3 Image Chart
1996 8 6 03 27.2 131.3 994 40 3 Image Chart
1996 8 6 06 27.1 131.6 994 40 3 Image Chart
1996 8 6 09 26.9 131.9 992 40 3 Image Chart
1996 8 6 12 26.7 132.1 990 40 3 Image Chart
1996 8 6 15 26.4 132.3 990 40 3 Image Chart
1996 8 6 18 26.2 132.6 990 40 3 Image Chart
1996 8 6 21 26.1 132.9 990 40 3 Image Chart
1996 8 7 00 26.0 133.2 990 40 3 Image Chart
1996 8 7 03 25.9 133.4 990 40 3 Image Chart
1996 8 7 06 25.8 133.5 990 40 3 Image Chart
1996 8 7 12 25.4 133.8 990 40 3 Image Chart
1996 8 7 18 25.2 133.8 990 40 3 Image Chart
1996 8 8 00 24.8 134.0 990 40 3 Image Chart
1996 8 8 06 24.8 134.2 985 45 3 Image Chart
1996 8 8 12 24.9 133.9 985 45 3 Image Chart
1996 8 8 18 24.9 133.4 985 45 3 Image Chart
1996 8 9 00 25.2 133.0 980 50 4 Image Chart
1996 8 9 03 25.4 132.6 975 55 4 Image Chart
1996 8 9 06 25.4 132.3 975 55 4 Image Chart
1996 8 9 09 25.3 131.8 975 55 4 Image Chart
1996 8 9 12 25.0 131.4 975 55 4 Image Chart
1996 8 9 15 24.8 131.2 975 55 4 Image Chart
1996 8 9 18 24.6 131.0 975 60 4 Image Chart
1996 8 9 21 24.5 130.9 975 60 4 Image Chart
1996 8 10 00 24.4 130.8 975 60 4 Image Chart
1996 8 10 03 24.4 130.7 975 60 4 Image Chart
1996 8 10 06 24.4 130.7 970 65 5 Image Chart
1996 8 10 09 24.3 130.6 970 65 5 Image Chart
1996 8 10 12 24.2 130.5 970 65 5 Image Chart
1996 8 10 15 24.1 130.4 970 65 5 Image Chart
1996 8 10 18 24.1 130.4 970 65 5 Image Chart
1996 8 10 21 24.2 130.3 965 70 5 Image Chart
1996 8 11 00 24.3 130.3 965 70 5 Image Chart
1996 8 11 03 24.5 130.3 965 70 5 Image Chart
1996 8 11 06 24.8 130.3 965 70 5 Image Chart
1996 8 11 09 25.0 130.1 965 70 5 Image Chart
1996 8 11 12 25.1 129.7 965 70 5 Image Chart
1996 8 11 15 25.2 129.3 965 70 5 Image Chart
1996 8 11 18 25.4 129.0 965 70 5 Image Chart
1996 8 11 21 25.7 128.6 965 70 5 Image Chart
1996 8 12 00 25.9 128.3 960 70 5 Image Chart
1996 8 12 03 26.1 128.1 960 70 5 Image Chart
1996 8 12 06 26.3 127.9 960 70 5 Image Chart
1996 8 12 09 26.5 127.7 960 70 5 Image Chart
1996 8 12 12 26.6 127.7 960 70 5 Image Chart
1996 8 12 15 26.8 127.6 960 75 5 Image Chart
1996 8 12 18 27.1 127.5 960 75 5 Image Chart
1996 8 12 21 27.4 127.6 960 75 5 Image Chart
1996 8 13 00 27.8 127.7 960 75 5 Image Chart
1996 8 13 03 28.2 127.9 960 75 5 Image Chart
1996 8 13 06 28.7 128.1 960 75 5 Image Chart
1996 8 13 09 29.3 128.4 955 75 5 Image Chart
1996 8 13 12 29.9 128.7 955 75 5 Image Chart
1996 8 13 15 30.4 129.0 955 75 5 Image Chart
1996 8 13 18 30.9 129.2 955 75 5 Image Chart
1996 8 13 21 31.7 129.6 955 75 5 Image Chart
1996 8 14 00 32.4 130.3 960 75 5 Image Chart
1996 8 14 01 32.7 130.5 960 75 5 Image Chart
1996 8 14 03 33.2 131.0 965 70 5 Image Chart
1996 8 14 06 33.9 131.8 970 65 5 Image Chart
1996 8 14 09 34.6 132.9 975 60 4 Image Chart
1996 8 14 12 35.8 134.4 980 55 4 Image Chart
1996 8 14 15 36.5 135.3 980 55 4 Image Chart
1996 8 14 18 37.2 136.3 980 55 4 Image Chart
1996 8 14 21 37.9 137.9 985 50 4 Image Chart
1996 8 15 00 38.4 139.5 985 50 4 Image Chart
1996 8 15 03 38.8 141.5 985 50 4 Image Chart
1996 8 15 06 39.6 143.1 985 50 4 Image Chart
1996 8 15 09 40.1 144.2 985 45 3 Image Chart
1996 8 15 12 40.6 145.1 985 45 3 Image Chart
1996 8 15 18 41.4 146.0 985 45 3 Image Chart
1996 8 16 00 43.0 150.0 984 0 6 Image Chart
1996 8 16 06 44.0 152.0 984 0 6 Image Chart
1996 8 16 12 44.0 156.0 988 0 6 Image Chart
1996 8 16 18 45.0 158.0 988 0 6 Image Chart
1996 8 17 00 46.0 160.0 992 0 6 Image Chart
1996 8 17 06 47.0 163.0 994 0 6 Image Chart
1996 8 17 12 48.0 166.0 996 0 6 Image Chart
1996 8 17 18 50.0 169.0 998 0 6 Image Chart
1996 8 18 00 51.0 172.0 996 0 6 Image Chart
1996 8 18 06 54.0 174.0 996 0 6 Image Chart
1996 8 18 12 56.0 176.0 996 0 6 Image Chart
1996 8 18 18 58.0 181.0 994 0 6 Image Chart
Japan Meteorological Agency Best Track Data | Correction Date : 1997-01-07
< Typhoon 199611 1996 Season Typhoon 199613 >

Help